sensor_id;sensor_type;location;lat;lon;timestamp;pressure;altitude;pressure_sealevel;temperature;humidity
52949;BME280;38812;50.942;3.644;2023-08-06T00:01:11;100421.84;;;14.43;100.00
52949;BME280;38812;50.942;3.644;2023-08-06T00:03:37;100417.28;;;14.47;100.00
52949;BME280;38812;50.942;3.644;2023-08-06T00:06:05;100418.34;;;14.43;100.00
52949;BME280;38812;50.942;3.644;2023-08-06T00:08:31;100421.03;;;14.41;100.00
52949;BME280;38812;50.942;3.644;2023-08-06T00:10:56;100418.41;;;14.41;100.00
52949;BME280;38812;50.942;3.644;2023-08-06T00:13:21;100402.56;;;14.41;100.00
52949;BME280;38812;50.942;3.644;2023-08-06T00:15:47;100406.97;;;14.40;100.00
52949;BME280;38812;50.942;3.644;2023-08-06T00:18:12;100414.50;;;14.50;100.00
52949;BME280;38812;50.942;3.644;2023-08-06T00:20:40;100416.28;;;14.49;100.00
52949;BME280;38812;50.942;3.644;2023-08-06T00:23:07;100405.63;;;14.51;100.00
52949;BME280;38812;50.942;3.644;2023-08-06T00:25:32;100416.44;;;14.46;100.00
52949;BME280;38812;50.942;3.644;2023-08-06T00:27:58;100418.41;;;14.41;100.00
52949;BME280;38812;50.942;3.644;2023-08-06T00:30:23;100405.53;;;14.32;100.00
52949;BME280;38812;50.942;3.644;2023-08-06T00:32:48;100400.94;;;14.37;100.00
52949;BME280;38812;50.942;3.644;2023-08-06T00:35:14;100382.19;;;14.23;100.00
52949;BME280;38812;50.942;3.644;2023-08-06T00:37:39;100378.63;;;14.24;100.00
52949;BME280;38812;50.942;3.644;2023-08-06T00:40:06;100364.34;;;14.28;100.00
52949;BME280;38812;50.942;3.644;2023-08-06T00:42:32;100362.91;;;14.21;100.00
52949;BME280;38812;50.942;3.644;2023-08-06T00:44:59;100351.34;;;14.23;100.00
52949;BME280;38812;50.942;3.644;2023-08-06T00:47:25;100337.59;;;14.15;100.00
52949;BME280;38812;50.942;3.644;2023-08-06T00:49:50;100334.88;;;14.17;100.00
52949;BME280;38812;50.942;3.644;2023-08-06T00:52:16;100309.66;;;14.10;100.00
52949;BME280;38812;50.942;3.644;2023-08-06T00:54:41;100327.50;;;14.25;100.00
52949;BME280;38812;50.942;3.644;2023-08-06T00:57:07;100324.31;;;14.17;100.00
52949;BME280;38812;50.942;3.644;2023-08-06T00:59:34;100307.00;;;14.10;100.00
52949;BME280;38812;50.942;3.644;2023-08-06T01:01:59;100318.97;;;14.18;100.00
52949;BME280;38812;50.942;3.644;2023-08-06T01:04:24;100318.59;;;14.07;100.00
52949;BME280;38812;50.942;3.644;2023-08-06T01:12:23;100357.47;;;14.24;100.00
52949;BME280;38812;50.942;3.644;2023-08-06T01:15:07;100369.91;;;14.22;100.00
52949;BME280;38812;50.942;3.644;2023-08-06T01:17:36;100388.13;;;14.28;100.00
52949;BME280;38812;50.942;3.644;2023-08-06T01:20:03;100391.69;;;14.27;100.00
52949;BME280;38812;50.942;3.644;2023-08-06T01:22:29;100414.84;;;14.42;100.00
52949;BME280;38812;50.942;3.644;2023-08-06T01:24:54;100422.22;;;14.54;100.00
52949;BME280;38812;50.942;3.644;2023-08-06T01:27:26;100423.22;;;14.52;100.00
52949;BME280;38812;50.942;3.644;2023-08-06T01:32:49;100446.72;;;14.58;100.00
52949;BME280;38812;50.942;3.644;2023-08-06T01:35:15;100448.31;;;14.62;100.00
52949;BME280;38812;50.942;3.644;2023-08-06T01:37:43;100445.38;;;14.49;100.00
52949;BME280;38812;50.942;3.644;2023-08-06T01:40:13;100427.00;;;14.46;100.00
52949;BME280;38812;50.942;3.644;2023-08-06T01:42:38;100447.28;;;14.46;100.00
52949;BME280;38812;50.942;3.644;2023-08-06T01:45:06;100451.06;;;14.38;100.00
52949;BME280;38812;50.942;3.644;2023-08-06T01:47:32;100459.91;;;14.37;100.00
52949;BME280;38812;50.942;3.644;2023-08-06T01:49:57;100457.59;;;14.30;100.00
52949;BME280;38812;50.942;3.644;2023-08-06T01:52:23;100472.00;;;14.23;100.00
52949;BME280;38812;50.942;3.644;2023-08-06T01:54:48;100481.78;;;14.21;100.00
52949;BME280;38812;50.942;3.644;2023-08-06T01:57:13;100519.13;;;14.12;100.00
52949;BME280;38812;50.942;3.644;2023-08-06T01:59:39;100528.03;;;14.09;100.00
52949;BME280;38812;50.942;3.644;2023-08-06T02:02:04;100541.13;;;14.12;100.00
52949;BME280;38812;50.942;3.644;2023-08-06T02:04:29;100550.03;;;14.10;100.00
52949;BME280;38812;50.942;3.644;2023-08-06T02:06:55;100552.50;;;14.14;100.00
52949;BME280;38812;50.942;3.644;2023-08-06T02:09:20;100558.63;;;14.15;100.00
52949;BME280;38812;50.942;3.644;2023-08-06T02:11:46;100561.50;;;14.08;100.00
52949;BME280;38812;50.942;3.644;2023-08-06T02:14:11;100569.22;;;14.15;100.00
52949;BME280;38812;50.942;3.644;2023-08-06T02:16:37;100578.63;;;14.22;100.00
52949;BME280;38812;50.942;3.644;2023-08-06T02:19:02;100584.81;;;14.21;100.00
52949;BME280;38812;50.942;3.644;2023-08-06T02:21:28;100581.88;;;14.28;100.00
52949;BME280;38812;50.942;3.644;2023-08-06T02:23:53;100597.47;;;14.34;100.00
52949;BME280;38812;50.942;3.644;2023-08-06T02:26:18;100597.00;;;14.25;100.00
52949;BME280;38812;50.942;3.644;2023-08-06T02:28:44;100605.72;;;14.27;100.00
52949;BME280;38812;50.942;3.644;2023-08-06T02:31:09;100606.31;;;14.12;100.00
52949;BME280;38812;50.942;3.644;2023-08-06T02:33:35;100596.00;;;14.05;100.00
52949;BME280;38812;50.942;3.644;2023-08-06T02:36:03;100597.50;;;13.89;100.00
52949;BME280;38812;50.942;3.644;2023-08-06T02:38:30;100604.31;;;13.95;100.00
52949;BME280;38812;50.942;3.644;2023-08-06T02:40:55;100610.91;;;13.85;100.00
52949;BME280;38812;50.942;3.644;2023-08-06T02:43:20;100596.31;;;13.75;100.00
52949;BME280;38812;50.942;3.644;2023-08-06T02:45:46;100608.81;;;13.69;100.00
52949;BME280;38812;50.942;3.644;2023-08-06T02:48:11;100605.22;;;13.72;100.00
52949;BME280;38812;50.942;3.644;2023-08-06T02:50:40;100625.19;;;13.79;100.00
52949;BME280;38812;50.942;3.644;2023-08-06T02:53:06;100625.53;;;13.70;100.00
52949;BME280;38812;50.942;3.644;2023-08-06T02:55:32;100639.47;;;13.73;100.00
52949;BME280;38812;50.942;3.644;2023-08-06T02:57:59;100634.31;;;13.70;100.00
52949;BME280;38812;50.942;3.644;2023-08-06T03:00:25;100647.22;;;13.78;100.00
52949;BME280;38812;50.942;3.644;2023-08-06T03:02:50;100648.94;;;13.79;100.00
52949;BME280;38812;50.942;3.644;2023-08-06T03:05:16;100645.66;;;13.72;100.00
52949;BME280;38812;50.942;3.644;2023-08-06T03:07:41;100655.97;;;13.80;100.00
52949;BME280;38812;50.942;3.644;2023-08-06T03:10:07;100672.59;;;13.82;100.00
52949;BME280;38812;50.942;3.644;2023-08-06T03:12:32;100662.66;;;13.89;100.00
52949;BME280;38812;50.942;3.644;2023-08-06T03:14:57;100683.72;;;13.90;100.00
52949;BME280;38812;50.942;3.644;2023-08-06T03:17:23;100685.56;;;13.88;100.00
52949;BME280;38812;50.942;3.644;2023-08-06T03:19:48;100703.13;;;13.89;100.00
52949;BME280;38812;50.942;3.644;2023-08-06T03:22:13;100706.25;;;14.00;100.00
52949;BME280;38812;50.942;3.644;2023-08-06T03:24:39;100711.03;;;13.89;100.00
52949;BME280;38812;50.942;3.644;2023-08-06T03:27:04;100712.09;;;13.85;100.00
52949;BME280;38812;50.942;3.644;2023-08-06T03:29:30;100728.78;;;13.86;100.00
52949;BME280;38812;50.942;3.644;2023-08-06T03:31:55;100736.66;;;13.87;100.00
52949;BME280;38812;50.942;3.644;2023-08-06T03:34:20;100742.75;;;13.89;100.00
52949;BME280;38812;50.942;3.644;2023-08-06T03:36:46;100745.56;;;13.85;100.00
52949;BME280;38812;50.942;3.644;2023-08-06T03:39:11;100748.13;;;13.86;100.00
52949;BME280;38812;50.942;3.644;2023-08-06T03:41:37;100751.00;;;13.80;100.00
52949;BME280;38812;50.942;3.644;2023-08-06T03:44:02;100766.81;;;13.82;100.00
52949;BME280;38812;50.942;3.644;2023-08-06T03:46:29;100760.72;;;13.80;100.00
52949;BME280;38812;50.942;3.644;2023-08-06T03:48:54;100761.56;;;13.80;100.00
52949;BME280;38812;50.942;3.644;2023-08-06T03:51:20;100774.78;;;13.80;100.00
52949;BME280;38812;50.942;3.644;2023-08-06T03:53:45;100783.72;;;13.76;100.00
52949;BME280;38812;50.942;3.644;2023-08-06T03:56:10;100778.53;;;13.73;100.00
52949;BME280;38812;50.942;3.644;2023-08-06T03:58:36;100786.41;;;13.75;100.00
52949;BME280;38812;50.942;3.644;2023-08-06T04:01:02;100789.00;;;13.76;100.00
52949;BME280;38812;50.942;3.644;2023-08-06T04:03:28;100789.81;;;13.78;100.00
52949;BME280;38812;50.942;3.644;2023-08-06T04:05:54;100797.81;;;13.75;100.00
52949;BME280;38812;50.942;3.644;2023-08-06T04:08:20;100788.22;;;13.72;100.00
52949;BME280;38812;50.942;3.644;2023-08-06T04:10:49;100803.31;;;13.69;100.00
52949;BME280;38812;50.942;3.644;2023-08-06T04:13:14;100800.00;;;13.64;100.00
52949;BME280;38812;50.942;3.644;2023-08-06T04:15:40;100795.72;;;13.60;100.00
52949;BME280;38812;50.942;3.644;2023-08-06T04:18:05;100797.41;;;13.62;100.00
52949;BME280;38812;50.942;3.644;2023-08-06T04:20:30;100799.81;;;13.68;100.00
52949;BME280;38812;50.942;3.644;2023-08-06T04:22:56;100788.00;;;13.54;100.00
52949;BME280;38812;50.942;3.644;2023-08-06T04:25:21;100802.84;;;13.58;100.00
52949;BME280;38812;50.942;3.644;2023-08-06T04:27:47;100811.47;;;13.63;100.00
52949;BME280;38812;50.942;3.644;2023-08-06T04:30:13;100800.25;;;13.56;100.00
52949;BME280;38812;50.942;3.644;2023-08-06T04:32:39;100811.81;;;13.52;100.00
52949;BME280;38812;50.942;3.644;2023-08-06T04:35:05;100805.66;;;13.52;100.00
52949;BME280;38812;50.942;3.644;2023-08-06T04:37:30;100820.03;;;13.43;100.00
52949;BME280;38812;50.942;3.644;2023-08-06T04:39:56;100821.69;;;13.46;100.00
52949;BME280;38812;50.942;3.644;2023-08-06T04:42:21;100824.28;;;13.47;100.00
52949;BME280;38812;50.942;3.644;2023-08-06T04:44:46;100816.41;;;13.46;100.00
52949;BME280;38812;50.942;3.644;2023-08-06T04:47:12;100817.25;;;13.48;100.00
52949;BME280;38812;50.942;3.644;2023-08-06T04:49:37;100814.81;;;13.42;100.00
52949;BME280;38812;50.942;3.644;2023-08-06T04:52:03;100835.06;;;13.41;100.00
52949;BME280;38812;50.942;3.644;2023-08-06T04:54:28;100833.75;;;13.54;100.00
52949;BME280;38812;50.942;3.644;2023-08-06T04:56:54;100831.41;;;13.45;100.00
52949;BME280;38812;50.942;3.644;2023-08-06T04:59:19;100823.66;;;13.41;100.00
52949;BME280;38812;50.942;3.644;2023-08-06T05:01:44;100832.88;;;13.54;100.00
52949;BME280;38812;50.942;3.644;2023-08-06T05:04:10;100825.38;;;13.42;100.00
52949;BME280;38812;50.942;3.644;2023-08-06T05:06:35;100839.59;;;13.64;100.00
52949;BME280;38812;50.942;3.644;2023-08-06T05:09:03;100839.22;;;13.48;100.00
52949;BME280;38812;50.942;3.644;2023-08-06T05:11:28;100847.19;;;13.47;100.00
52949;BME280;38812;50.942;3.644;2023-08-06T05:13:54;100850.03;;;13.41;100.00
52949;BME280;38812;50.942;3.644;2023-08-06T05:16:19;100832.78;;;13.30;100.00
52949;BME280;38812;50.942;3.644;2023-08-06T05:18:44;100848.31;;;13.40;100.00
52949;BME280;38812;50.942;3.644;2023-08-06T05:21:10;100853.38;;;13.46;100.00
52949;BME280;38812;50.942;3.644;2023-08-06T05:23:35;100855.91;;;13.49;100.00
52949;BME280;38812;50.942;3.644;2023-08-06T05:26:01;100860.28;;;13.50;100.00
52949;BME280;38812;50.942;3.644;2023-08-06T05:28:26;100862.00;;;13.51;100.00
52949;BME280;38812;50.942;3.644;2023-08-06T05:30:51;100862.09;;;13.48;100.00
52949;BME280;38812;50.942;3.644;2023-08-06T05:33:17;100867.19;;;13.54;100.00
52949;BME280;38812;50.942;3.644;2023-08-06T05:35:42;100870.94;;;13.47;100.00
52949;BME280;38812;50.942;3.644;2023-08-06T05:38:07;100878.03;;;13.45;100.00
52949;BME280;38812;50.942;3.644;2023-08-06T05:40:34;100889.41;;;13.47;100.00
52949;BME280;38812;50.942;3.644;2023-08-06T05:42:59;100880.19;;;13.60;100.00
52949;BME280;38812;50.942;3.644;2023-08-06T05:45:24;100895.97;;;13.61;100.00
52949;BME280;38812;50.942;3.644;2023-08-06T05:47:50;100910.44;;;13.50;100.00
52949;BME280;38812;50.942;3.644;2023-08-06T05:50:15;100910.72;;;13.41;100.00
52949;BME280;38812;50.942;3.644;2023-08-06T05:52:41;100937.91;;;13.43;100.00
52949;BME280;38812;50.942;3.644;2023-08-06T05:55:06;100936.41;;;13.35;100.00
52949;BME280;38812;50.942;3.644;2023-08-06T05:57:32;100948.69;;;13.36;100.00
52949;BME280;38812;50.942;3.644;2023-08-06T05:59:57;100951.94;;;13.45;100.00
52949;BME280;38812;50.942;3.644;2023-08-06T06:02:22;100957.84;;;13.53;100.00
52949;BME280;38812;50.942;3.644;2023-08-06T06:04:48;100942.91;;;13.52;100.00
52949;BME280;38812;50.942;3.644;2023-08-06T06:07:13;100954.38;;;13.51;100.00
52949;BME280;38812;50.942;3.644;2023-08-06T06:09:39;100944.97;;;13.70;100.00
52949;BME280;38812;50.942;3.644;2023-08-06T06:12:05;100940.81;;;13.63;100.00
52949;BME280;38812;50.942;3.644;2023-08-06T06:14:31;100935.41;;;13.66;100.00
52949;BME280;38812;50.942;3.644;2023-08-06T06:16:56;100946.69;;;13.71;100.00
52949;BME280;38812;50.942;3.644;2023-08-06T06:19:22;100953.78;;;13.69;100.00
52949;BME280;38812;50.942;3.644;2023-08-06T06:21:47;100949.03;;;13.80;100.00
52949;BME280;38812;50.942;3.644;2023-08-06T06:24:13;100958.19;;;13.96;100.00
52949;BME280;38812;50.942;3.644;2023-08-06T06:26:38;100945.69;;;14.01;100.00
52949;BME280;38812;50.942;3.644;2023-08-06T06:29:04;100955.13;;;14.08;100.00
52949;BME280;38812;50.942;3.644;2023-08-06T06:31:29;100954.34;;;14.06;100.00
52949;BME280;38812;50.942;3.644;2023-08-06T06:33:55;100958.81;;;14.04;100.00
52949;BME280;38812;50.942;3.644;2023-08-06T06:36:20;100955.72;;;13.90;100.00
52949;BME280;38812;50.942;3.644;2023-08-06T06:38:46;100961.00;;;13.90;100.00
52949;BME280;38812;50.942;3.644;2023-08-06T06:41:12;100958.38;;;13.90;100.00
52949;BME280;38812;50.942;3.644;2023-08-06T06:43:37;100961.34;;;13.81;100.00
52949;BME280;38812;50.942;3.644;2023-08-06T06:46:04;100961.25;;;13.84;100.00
52949;BME280;38812;50.942;3.644;2023-08-06T06:48:32;100976.88;;;13.90;100.00
52949;BME280;38812;50.942;3.644;2023-08-06T06:50:58;100989.94;;;13.95;100.00
52949;BME280;38812;50.942;3.644;2023-08-06T06:53:24;100975.03;;;13.92;100.00
52949;BME280;38812;50.942;3.644;2023-08-06T06:55:56;100972.09;;;14.01;100.00
52949;BME280;38812;50.942;3.644;2023-08-06T06:58:22;100983.88;;;14.18;100.00
52949;BME280;38812;50.942;3.644;2023-08-06T07:00:48;100977.25;;;14.31;100.00
52949;BME280;38812;50.942;3.644;2023-08-06T07:03:16;100977.16;;;14.34;100.00
52949;BME280;38812;50.942;3.644;2023-08-06T07:05:42;100981.03;;;14.24;100.00
52949;BME280;38812;50.942;3.644;2023-08-06T07:08:08;100987.66;;;14.35;100.00
52949;BME280;38812;50.942;3.644;2023-08-06T07:10:33;100986.91;;;14.32;100.00
52949;BME280;38812;50.942;3.644;2023-08-06T07:12:59;100975.06;;;14.45;100.00
52949;BME280;38812;50.942;3.644;2023-08-06T07:15:24;100964.13;;;14.54;100.00
52949;BME280;38812;50.942;3.644;2023-08-06T07:17:49;100978.44;;;14.97;100.00
52949;BME280;38812;50.942;3.644;2023-08-06T07:20:15;100962.56;;;14.97;100.00
52949;BME280;38812;50.942;3.644;2023-08-06T07:22:40;100976.38;;;15.05;100.00
52949;BME280;38812;50.942;3.644;2023-08-06T07:25:06;100967.66;;;15.03;100.00
52949;BME280;38812;50.942;3.644;2023-08-06T07:27:32;100967.84;;;14.73;100.00
52949;BME280;38812;50.942;3.644;2023-08-06T07:29:57;100978.59;;;14.94;100.00
52949;BME280;38812;50.942;3.644;2023-08-06T07:32:23;100985.81;;;14.89;100.00
52949;BME280;38812;50.942;3.644;2023-08-06T07:34:49;100984.97;;;14.88;100.00
52949;BME280;38812;50.942;3.644;2023-08-06T07:37:14;100978.31;;;14.77;100.00
52949;BME280;38812;50.942;3.644;2023-08-06T07:39:39;100978.94;;;14.60;100.00
52949;BME280;38812;50.942;3.644;2023-08-06T07:42:07;100987.34;;;14.46;100.00
52949;BME280;38812;50.942;3.644;2023-08-06T07:44:32;100990.81;;;14.48;100.00
52949;BME280;38812;50.942;3.644;2023-08-06T07:46:57;100991.38;;;14.30;100.00
52949;BME280;38812;50.942;3.644;2023-08-06T07:49:23;101001.66;;;14.39;100.00
52949;BME280;38812;50.942;3.644;2023-08-06T07:51:49;100990.81;;;14.48;100.00
52949;BME280;38812;50.942;3.644;2023-08-06T07:54:16;100988.44;;;14.65;100.00
52949;BME280;38812;50.942;3.644;2023-08-06T07:56:42;100999.22;;;14.84;100.00
52949;BME280;38812;50.942;3.644;2023-08-06T07:59:07;101001.13;;;15.04;100.00
52949;BME280;38812;50.942;3.644;2023-08-06T08:01:33;101010.22;;;15.20;100.00
52949;BME280;38812;50.942;3.644;2023-08-06T08:03:58;100988.91;;;15.00;100.00
52949;BME280;38812;50.942;3.644;2023-08-06T08:06:24;101000.72;;;14.91;100.00
52949;BME280;38812;50.942;3.644;2023-08-06T08:08:49;100992.94;;;14.87;100.00
52949;BME280;38812;50.942;3.644;2023-08-06T08:11:15;100997.38;;;14.61;100.00
52949;BME280;38812;50.942;3.644;2023-08-06T08:13:41;100999.41;;;14.53;100.00
52949;BME280;38812;50.942;3.644;2023-08-06T08:16:06;100999.75;;;14.44;100.00
52949;BME280;38812;50.942;3.644;2023-08-06T08:18:32;101011.16;;;14.46;100.00
52949;BME280;38812;50.942;3.644;2023-08-06T08:20:57;101012.75;;;14.24;100.00
52949;BME280;38812;50.942;3.644;2023-08-06T08:23:22;101008.38;;;14.23;100.00
52949;BME280;38812;50.942;3.644;2023-08-06T08:25:48;101009.16;;;14.26;100.00
52949;BME280;38812;50.942;3.644;2023-08-06T08:28:13;101011.78;;;14.26;100.00
52949;BME280;38812;50.942;3.644;2023-08-06T08:30:40;101008.47;;;14.20;100.00
52949;BME280;38812;50.942;3.644;2023-08-06T08:33:06;101018.53;;;14.35;100.00
52949;BME280;38812;50.942;3.644;2023-08-06T08:35:33;101021.16;;;14.35;100.00
52949;BME280;38812;50.942;3.644;2023-08-06T08:37:58;101010.44;;;14.41;100.00
52949;BME280;38812;50.942;3.644;2023-08-06T08:40:32;101015.72;;;14.41;100.00
52949;BME280;38812;50.942;3.644;2023-08-06T08:43:01;101012.81;;;14.49;100.00
52949;BME280;38812;50.942;3.644;2023-08-06T08:45:29;101017.13;;;14.51;100.00
52949;BME280;38812;50.942;3.644;2023-08-06T08:47:55;101019.03;;;14.48;100.00
52949;BME280;38812;50.942;3.644;2023-08-06T08:50:21;101031.47;;;14.44;100.00
52949;BME280;38812;50.942;3.644;2023-08-06T08:52:46;101031.31;;;14.49;100.00
52949;BME280;38812;50.942;3.644;2023-08-06T08:55:15;101033.34;;;14.40;100.00
52949;BME280;38812;50.942;3.644;2023-08-06T08:57:40;101027.38;;;14.34;100.00
52949;BME280;38812;50.942;3.644;2023-08-06T09:00:06;101031.03;;;14.56;100.00
52949;BME280;38812;50.942;3.644;2023-08-06T09:02:32;101030.09;;;14.84;100.00
52949;BME280;38812;50.942;3.644;2023-08-06T09:05:00;101027.28;;;14.88;100.00
52949;BME280;38812;50.942;3.644;2023-08-06T09:07:30;101038.13;;;14.81;100.00
52949;BME280;38812;50.942;3.644;2023-08-06T09:09:57;101044.88;;;14.64;100.00
52949;BME280;38812;50.942;3.644;2023-08-06T09:12:24;101030.00;;;14.34;100.00
52949;BME280;38812;50.942;3.644;2023-08-06T09:14:51;101049.84;;;14.49;100.00
52949;BME280;38812;50.942;3.644;2023-08-06T09:17:17;101072.28;;;14.34;100.00
52949;BME280;38812;50.942;3.644;2023-08-06T09:19:45;101067.63;;;14.44;100.00
52949;BME280;38812;50.942;3.644;2023-08-06T09:22:12;101064.81;;;14.48;100.00
52949;BME280;38812;50.942;3.644;2023-08-06T09:24:39;101071.84;;;14.74;100.00
52949;BME280;38812;50.942;3.644;2023-08-06T09:27:11;101079.63;;;14.79;100.00
52949;BME280;38812;50.942;3.644;2023-08-06T09:29:40;101078.72;;;14.80;100.00
52949;BME280;38812;50.942;3.644;2023-08-06T09:32:06;101093.41;;;15.13;100.00
52949;BME280;38812;50.942;3.644;2023-08-06T09:34:31;101080.38;;;15.07;100.00
52949;BME280;38812;50.942;3.644;2023-08-06T09:36:56;101081.03;;;15.14;100.00
52949;BME280;38812;50.942;3.644;2023-08-06T09:39:27;101094.84;;;15.22;100.00
52949;BME280;38812;50.942;3.644;2023-08-06T09:42:00;101078.34;;;15.15;100.00
52949;BME280;38812;50.942;3.644;2023-08-06T09:44:28;101083.78;;;15.35;100.00
52949;BME280;38812;50.942;3.644;2023-08-06T09:46:55;101089.00;;;15.37;100.00
52949;BME280;38812;50.942;3.644;2023-08-06T09:49:26;101098.50;;;15.42;100.00
52949;BME280;38812;50.942;3.644;2023-08-06T09:51:53;101109.50;;;15.07;100.00
52949;BME280;38812;50.942;3.644;2023-08-06T09:54:24;101131.31;;;14.34;100.00
52949;BME280;38812;50.942;3.644;2023-08-06T09:56:49;101153.34;;;14.33;100.00
52949;BME280;38812;50.942;3.644;2023-08-06T09:59:16;101144.47;;;14.36;100.00
52949;BME280;38812;50.942;3.644;2023-08-06T10:01:43;101152.88;;;14.50;100.00
52949;BME280;38812;50.942;3.644;2023-08-06T10:04:09;101141.69;;;14.68;100.00
52949;BME280;38812;50.942;3.644;2023-08-06T10:06:36;101139.88;;;14.70;100.00
52949;BME280;38812;50.942;3.644;2023-08-06T10:09:03;101143.97;;;14.53;100.00
52949;BME280;38812;50.942;3.644;2023-08-06T10:11:29;101142.00;;;14.59;100.00
52949;BME280;38812;50.942;3.644;2023-08-06T10:14:00;101146.25;;;14.63;100.00
52949;BME280;38812;50.942;3.644;2023-08-06T10:16:29;101145.69;;;14.80;100.00
52949;BME280;38812;50.942;3.644;2023-08-06T10:18:55;101138.38;;;14.88;100.00
52949;BME280;38812;50.942;3.644;2023-08-06T10:21:23;101135.59;;;14.93;100.00
52949;BME280;38812;50.942;3.644;2023-08-06T10:23:54;101141.97;;;15.37;100.00
52949;BME280;38812;50.942;3.644;2023-08-06T10:26:20;101135.91;;;15.33;100.00
52949;BME280;38812;50.942;3.644;2023-08-06T10:28:45;101130.47;;;15.61;100.00
52949;BME280;38812;50.942;3.644;2023-08-06T10:31:10;101142.69;;;15.65;100.00
52949;BME280;38812;50.942;3.644;2023-08-06T10:33:46;101134.91;;;15.61;100.00
52949;BME280;38812;50.942;3.644;2023-08-06T10:36:12;101140.09;;;15.64;100.00
52949;BME280;38812;50.942;3.644;2023-08-06T10:38:45;101144.25;;;15.46;100.00
52949;BME280;38812;50.942;3.644;2023-08-06T10:41:29;101152.25;;;15.44;100.00
52949;BME280;38812;50.942;3.644;2023-08-06T10:44:08;101144.34;;;15.68;100.00
52949;BME280;38812;50.942;3.644;2023-08-06T10:46:33;101155.59;;;15.74;100.00
52949;BME280;38812;50.942;3.644;2023-08-06T10:48:59;101129.69;;;16.04;100.00
52949;BME280;38812;50.942;3.644;2023-08-06T10:51:24;101156.63;;;15.70;100.00
52949;BME280;38812;50.942;3.644;2023-08-06T10:53:51;101143.91;;;15.57;100.00
52949;BME280;38812;50.942;3.644;2023-08-06T10:56:18;101160.84;;;15.76;100.00
52949;BME280;38812;50.942;3.644;2023-08-06T10:58:45;101158.34;;;15.47;100.00
52949;BME280;38812;50.942;3.644;2023-08-06T11:01:11;101165.31;;;15.74;100.00
52949;BME280;38812;50.942;3.644;2023-08-06T11:03:37;101172.25;;;15.78;100.00
52949;BME280;38812;50.942;3.644;2023-08-06T11:06:03;101186.84;;;15.88;100.00
52949;BME280;38812;50.942;3.644;2023-08-06T11:08:34;101171.06;;;15.85;100.00
52949;BME280;38812;50.942;3.644;2023-08-06T11:11:10;101181.13;;;15.77;100.00
52949;BME280;38812;50.942;3.644;2023-08-06T11:13:38;101183.72;;;16.02;100.00
52949;BME280;38812;50.942;3.644;2023-08-06T11:16:05;101197.81;;;15.79;100.00
52949;BME280;38812;50.942;3.644;2023-08-06T11:18:31;101191.81;;;15.74;100.00
52949;BME280;38812;50.942;3.644;2023-08-06T11:20:59;101194.34;;;15.77;100.00
52949;BME280;38812;50.942;3.644;2023-08-06T11:23:26;101199.25;;;15.88;100.00
52949;BME280;38812;50.942;3.644;2023-08-06T11:25:53;101211.41;;;15.93;100.00
52949;BME280;38812;50.942;3.644;2023-08-06T11:28:19;101207.84;;;15.94;100.00
52949;BME280;38812;50.942;3.644;2023-08-06T11:30:47;101210.47;;;15.71;100.00
52949;BME280;38812;50.942;3.644;2023-08-06T11:33:12;101189.91;;;15.77;100.00
52949;BME280;38812;50.942;3.644;2023-08-06T11:35:38;101213.22;;;15.68;100.00
52949;BME280;38812;50.942;3.644;2023-08-06T11:38:03;101213.81;;;15.51;100.00
52949;BME280;38812;50.942;3.644;2023-08-06T11:40:29;101196.47;;;15.91;100.00
52949;BME280;38812;50.942;3.644;2023-08-06T11:42:55;101204.72;;;16.06;100.00
52949;BME280;38812;50.942;3.644;2023-08-06T11:45:24;101194.91;;;15.85;100.00
52949;BME280;38812;50.942;3.644;2023-08-06T11:47:51;101221.16;;;15.68;100.00
52949;BME280;38812;50.942;3.644;2023-08-06T11:50:24;101207.38;;;15.33;100.00
52949;BME280;38812;50.942;3.644;2023-08-06T11:52:53;101221.84;;;15.23;100.00
52949;BME280;38812;50.942;3.644;2023-08-06T11:55:23;101226.41;;;15.18;100.00
52949;BME280;38812;50.942;3.644;2023-08-06T11:57:49;101233.97;;;15.04;100.00
52949;BME280;38812;50.942;3.644;2023-08-06T12:00:14;101226.53;;;14.89;100.00
52949;BME280;38812;50.942;3.644;2023-08-06T12:02:41;101242.47;;;14.87;100.00
52949;BME280;38812;50.942;3.644;2023-08-06T12:05:17;101227.66;;;15.08;100.00
52949;BME280;38812;50.942;3.644;2023-08-06T12:07:47;101246.75;;;15.16;100.00
52949;BME280;38812;50.942;3.644;2023-08-06T12:10:14;101241.78;;;15.33;100.00
52949;BME280;38812;50.942;3.644;2023-08-06T12:12:40;101233.91;;;15.58;100.00
52949;BME280;38812;50.942;3.644;2023-08-06T12:15:06;101228.69;;;15.80;100.00
52949;BME280;38812;50.942;3.644;2023-08-06T12:17:33;101225.75;;;15.63;100.00
52949;BME280;38812;50.942;3.644;2023-08-06T12:19:58;101236.41;;;15.36;100.00
52949;BME280;38812;50.942;3.644;2023-08-06T12:22:24;101236.91;;;15.21;100.00
52949;BME280;38812;50.942;3.644;2023-08-06T12:24:49;101245.25;;;15.09;100.00
52949;BME280;38812;50.942;3.644;2023-08-06T12:27:15;101255.31;;;14.98;100.00
52949;BME280;38812;50.942;3.644;2023-08-06T12:29:45;101241.66;;;15.12;100.00
52949;BME280;38812;50.942;3.644;2023-08-06T12:32:11;101255.84;;;15.35;100.00
52949;BME280;38812;50.942;3.644;2023-08-06T12:34:41;101240.69;;;15.39;100.00
52949;BME280;38812;50.942;3.644;2023-08-06T12:37:07;101250.69;;;15.57;100.00
52949;BME280;38812;50.942;3.644;2023-08-06T12:39:33;101253.41;;;15.56;100.00
52949;BME280;38812;50.942;3.644;2023-08-06T12:42:00;101263.66;;;15.65;100.00
52949;BME280;38812;50.942;3.644;2023-08-06T12:44:26;101260.50;;;15.54;100.00